Menu Close Menu
Station Historical Data
Daily Summary for September 18, 2017 Units:  English    Metric   Both
« Previous Day
Next Day »
Daily Weekly Monthly Yearly Custom
  High: Low: Average:
Temperature: 87.4 °F 62.4 °F 72.9 °F
Dew Point: 68.3 °F 59.3 °F 63.4 °F
Humidity: 93% 41% 75%
Wind Speed: 8.0mph 1.0mph 3.9mph
Wind Gust: 8.0mph - -
Wind- - SW
Pressure: 30.08 in 29.98 in -
Precipitation: 0.00 in    
Historical Graphs
 
 
Tabular Data for September 18, 2017
Time Temperature Dew Point Pressure Wind Wind Speed Wind Gust Humidity Rainfall Rate (Hourly) solar Conditions
00:00 68.4 °F 64.4 °F 30.07 in WNW 5.0 mph 5.0 mph 87% 0.00 in WeatherDisplay:10.37 W/m2 CLR
00:10 68.2 °F 64.2 °F 30.07 in WNW 5.0 mph 5.0 mph 87% 0.00 in WeatherDisplay:10.37 W/m2 CLR
00:15 68.1 °F 64.1 °F 30.07 in WNW 5.0 mph 5.0 mph 87% 0.00 in WeatherDisplay:10.37 W/m2 CLR
00:20 68.0 °F 64.3 °F 30.07 in WNW 5.0 mph 5.0 mph 88% 0.00 in WeatherDisplay:10.37 W/m2 CLR
00:25 68.0 °F 64.3 °F 30.07 in WNW 5.0 mph 5.0 mph 88% 0.00 in WeatherDisplay:10.37 W/m2 CLR
00:30 67.9 °F 64.2 °F 30.07 in WNW 5.0 mph 5.0 mph 88% 0.00 in WeatherDisplay:10.37 W/m2 CLR
00:40 67.6 °F 63.9 °F 30.06 in WNW 5.0 mph 5.0 mph 88% 0.00 in WeatherDisplay:10.37 W/m2 CLR
00:45 67.5 °F 63.8 °F 30.06 in WNW 5.0 mph 5.0 mph 88% 0.00 in WeatherDisplay:10.37 W/m2 CLR
00:50 67.4 °F 63.7 °F 30.06 in WNW 5.0 mph 5.0 mph 88% 0.00 in WeatherDisplay:10.37 W/m2 CLR
00:55 67.3 °F 63.9 °F 30.06 in WNW 5.0 mph 5.0 mph 89% 0.00 in WeatherDisplay:10.37 W/m2 CLR
01:00 67.3 °F 63.9 °F 30.06 in WNW 5.0 mph 5.0 mph 89% 0.00 in WeatherDisplay:10.37 W/m2 CLR
01:05 67.2 °F 63.8 °F 30.06 in WNW 5.0 mph 5.0 mph 89% 0.00 in WeatherDisplay:10.37 W/m2 CLR
01:10 67.1 °F 63.7 °F 30.06 in WNW 5.0 mph 5.0 mph 89% 0.00 in WeatherDisplay:10.37 W/m2 CLR
01:15 66.9 °F 63.6 °F 30.06 in WNW 5.0 mph 5.0 mph 89% 0.00 in WeatherDisplay:10.37 W/m2 CLR
01:20 66.8 °F 63.5 °F 30.05 in WNW 5.0 mph 5.0 mph 89% 0.00 in WeatherDisplay:10.37 W/m2 CLR
01:25 66.7 °F 63.4 °F 30.05 in WNW 5.0 mph 5.0 mph 89% 0.00 in WeatherDisplay:10.37 W/m2 CLR
01:30 66.6 °F 63.3 °F 30.05 in WNW 5.0 mph 5.0 mph 89% 0.00 in WeatherDisplay:10.37 W/m2 CLR
01:40 66.3 °F 63.0 °F 30.05 in WNW 5.0 mph 5.0 mph 89% 0.00 in WeatherDisplay:10.37 W/m2 CLR
01:45 66.2 °F 63.2 °F 30.05 in WNW 5.0 mph 5.0 mph 90% 0.00 in WeatherDisplay:10.37 W/m2 CLR
01:50 66.0 °F 63.0 °F 30.05 in WNW 5.0 mph 5.0 mph 90% 0.00 in WeatherDisplay:10.37 W/m2 CLR
01:55 65.9 °F 62.9 °F 30.05 in WNW 5.0 mph 5.0 mph 90% 0.00 in WeatherDisplay:10.37 W/m2 CLR
02:00 65.9 °F 62.9 °F 30.05 in WNW 5.0 mph 5.0 mph 90% 0.00 in WeatherDisplay:10.37 W/m2 CLR
02:05 65.8 °F 62.8 °F 30.05 in WNW 5.0 mph 5.0 mph 90% 0.00 in WeatherDisplay:10.37 W/m2 CLR
02:10 65.8 °F 62.8 °F 30.05 in WNW 5.0 mph 5.0 mph 90% 0.00 in WeatherDisplay:10.37 W/m2 CLR
02:15 65.8 °F 62.8 °F 30.05 in WNW 5.0 mph 5.0 mph 90% 0.00 in WeatherDisplay:10.37 W/m2 CLR
02:20 65.8 °F 63.1 °F 30.05 in WNW 5.0 mph 5.0 mph 91% 0.00 in WeatherDisplay:10.37 W/m2 CLR
02:25 65.8 °F 63.1 °F 30.04 in WNW 5.0 mph 5.0 mph 91% 0.00 in WeatherDisplay:10.37 W/m2 CLR
02:30 65.7 °F 62.7 °F 30.04 in WNW 5.0 mph 5.0 mph 90% 0.00 in WeatherDisplay:10.37 W/m2 CLR
02:35 65.6 °F 62.6 °F 30.04 in WNW 5.0 mph 5.0 mph 90% 0.00 in WeatherDisplay:10.37 W/m2 CLR
02:40 65.4 °F 62.4 °F 30.04 in WNW 5.0 mph 5.0 mph 90% 0.00 in WeatherDisplay:10.37 W/m2 CLR
02:45 65.4 °F 62.7 °F 30.04 in WNW 5.0 mph 5.0 mph 91% 0.00 in WeatherDisplay:10.37 W/m2 CLR
02:50 65.3 °F 62.6 °F 30.04 in WNW 5.0 mph 5.0 mph 91% 0.00 in WeatherDisplay:10.37 W/m2 CLR
02:55 65.2 °F 62.2 °F 30.04 in WNW 5.0 mph 5.0 mph 90% 0.00 in WeatherDisplay:10.37 W/m2 CLR
03:00 65.0 °F 62.3 °F 30.04 in WNW 5.0 mph 5.0 mph 91% 0.00 in WeatherDisplay:10.37 W/m2 CLR
03:10 64.7 °F 62.0 °F 30.04 in WNW 5.0 mph 5.0 mph 91% 0.00 in WeatherDisplay:10.37 W/m2 CLR
03:15 64.7 °F 62.0 °F 30.04 in WNW 5.0 mph 5.0 mph 91% 0.00 in WeatherDisplay:10.37 W/m2 CLR
03:20 64.7 °F 62.0 °F 30.04 in WNW 5.0 mph 5.0 mph 91% 0.00 in WeatherDisplay:10.37 W/m2 CLR
03:25 64.7 °F 62.0 °F 30.04 in WNW 5.0 mph 5.0 mph 91% 0.00 in WeatherDisplay:10.37 W/m2 CLR
03:30 64.9 °F 62.6 °F 30.04 in WNW 5.0 mph 5.0 mph 92% 0.00 in WeatherDisplay:10.37 W/m2 CLR
03:40 65.0 °F 62.3 °F 30.04 in WNW 5.0 mph 5.0 mph 91% 0.00 in WeatherDisplay:10.37 W/m2 CLR
03:45 64.8 °F 62.1 °F 30.04 in WNW 5.0 mph 5.0 mph 91% 0.00 in WeatherDisplay:10.37 W/m2 CLR
03:50 64.6 °F 61.9 °F 30.03 in WNW 5.0 mph 5.0 mph 91% 0.00 in WeatherDisplay:10.37 W/m2 CLR
03:55 64.4 °F 61.7 °F 30.03 in WNW 5.0 mph 5.0 mph 91% 0.00 in WeatherDisplay:10.37 W/m2 CLR
04:00 64.3 °F 61.6 °F 30.03 in WNW 5.0 mph 5.0 mph 91% 0.00 in WeatherDisplay:10.37 W/m2 CLR
04:05 64.2 °F 61.5 °F 30.03 in WNW 5.0 mph 5.0 mph 91% 0.00 in WeatherDisplay:10.37 W/m2 CLR
04:10 64.2 °F 61.5 °F 30.03 in WNW 5.0 mph 5.0 mph 91% 0.00 in WeatherDisplay:10.37 W/m2 CLR
04:15 64.1 °F 61.4 °F 30.03 in WNW 5.0 mph 5.0 mph 91% 0.00 in WeatherDisplay:10.37 W/m2 CLR
04:20 64.1 °F 61.4 °F 30.03 in WNW 5.0 mph 5.0 mph 91% 0.00 in WeatherDisplay:10.37 W/m2 CLR
04:30 63.9 °F 61.2 °F 30.03 in WNW 5.0 mph 5.0 mph 91% 0.00 in WeatherDisplay:10.37 W/m2 CLR
04:40 63.7 °F 61.0 °F 30.03 in WNW 5.0 mph 5.0 mph 91% 0.00 in WeatherDisplay:10.37 W/m2 CLR
04:45 63.7 °F 61.0 °F 30.03 in WNW 5.0 mph 5.0 mph 91% 0.00 in WeatherDisplay:10.37 W/m2 CLR
04:50 63.6 °F 61.2 °F 30.03 in WNW 5.0 mph 5.0 mph 92% 0.00 in WeatherDisplay:10.37 W/m2 CLR
04:55 63.6 °F 61.2 °F 30.03 in WNW 5.0 mph 5.0 mph 92% 0.00 in WeatherDisplay:10.37 W/m2 CLR
05:00 63.6 °F 61.2 °F 30.03 in WNW 5.0 mph 5.0 mph 92% 0.00 in WeatherDisplay:10.37 W/m2 CLR
05:05 63.5 °F 61.1 °F 30.03 in WNW 5.0 mph 5.0 mph 92% 0.00 in WeatherDisplay:10.37 W/m2 CLR
05:10 63.4 °F 61.0 °F 30.03 in WNW 5.0 mph 5.0 mph 92% 0.00 in WeatherDisplay:10.37 W/m2 CLR
05:15 63.4 °F 61.0 °F 30.03 in WNW 5.0 mph 5.0 mph 92% 0.00 in WeatherDisplay:10.37 W/m2 CLR
05:20 63.3 °F 60.9 °F 30.03 in WNW 5.0 mph 5.0 mph 92% 0.00 in WeatherDisplay:10.37 W/m2 CLR
05:25 63.3 °F 60.9 °F 30.04 in WNW 5.0 mph 5.0 mph 92% 0.00 in WeatherDisplay:10.37 W/m2 CLR
05:30 63.2 °F 60.8 °F 30.03 in WNW 5.0 mph 5.0 mph 92% 0.00 in WeatherDisplay:10.37 W/m2 CLR
05:40 63.1 °F 60.7 °F 30.03 in WNW 5.0 mph 5.0 mph 92% 0.00 in WeatherDisplay:10.37 W/m2 CLR
05:45 63.1 °F 60.7 °F 30.03 in WNW 5.0 mph 5.0 mph 92% 0.00 in WeatherDisplay:10.37 W/m2 CLR
05:50 63.0 °F 60.6 °F 30.03 in WNW 5.0 mph 5.0 mph 92% 0.00 in WeatherDisplay:10.37 W/m2 CLR
05:55 63.0 °F 60.6 °F 30.03 in WNW 5.0 mph 5.0 mph 92% 0.00 in WeatherDisplay:10.37 W/m2 CLR
06:00 63.0 °F 60.6 °F 30.04 in WNW 5.0 mph 5.0 mph 92% 0.00 in WeatherDisplay:10.37 W/m2 CLR
06:05 63.0 °F 60.6 °F 30.04 in WNW 5.0 mph 5.0 mph 92% 0.00 in WeatherDisplay:10.37 W/m2 CLR
06:10 63.0 °F 60.6 °F 30.04 in WNW 5.0 mph 5.0 mph 92% 0.00 in WeatherDisplay:10.37 W/m2 CLR
06:15 63.0 °F 60.6 °F 30.04 in WNW 5.0 mph 5.0 mph 92% 0.00 in WeatherDisplay:10.37 W/m2 CLR
06:20 62.9 °F 60.5 °F 30.04 in WNW 5.0 mph 5.0 mph 92% 0.00 in WeatherDisplay:10.37 W/m2 CLR
06:25 62.8 °F 60.4 °F 30.04 in WNW 5.0 mph 5.0 mph 92% 0.00 in WeatherDisplay:10.37 W/m2 CLR
06:30 62.9 °F 60.5 °F 30.05 in WNW 5.0 mph 5.0 mph 92% 0.00 in WeatherDisplay:10.37 W/m2 CLR
06:40 62.9 °F 60.8 °F 30.05 in WNW 5.0 mph 5.0 mph 93% 0.00 in WeatherDisplay:10.37 W/m2 CLR
06:45 62.9 °F 60.8 °F 30.05 in WNW 5.0 mph 5.0 mph 93% 0.00 in WeatherDisplay:10.37 W/m2 CLR
06:50 62.8 °F 60.7 °F 30.05 in WNW 5.0 mph 5.0 mph 93% 0.00 in WeatherDisplay:10.37 W/m2 CLR
06:55 62.8 °F 60.4 °F 30.05 in WNW 5.0 mph 5.0 mph 92% 0.00 in WeatherDisplay:10.37 W/m2 CLR
07:00 62.8 °F 60.7 °F 30.05 in WNW 5.0 mph 5.0 mph 93% 0.00 in WeatherDisplay:10.37 W/m2 CLR
07:05 62.7 °F 60.6 °F 30.06 in WNW 5.0 mph 5.0 mph 93% 0.00 in WeatherDisplay:10.37 W/m2 CLR
07:10 62.7 °F 60.6 °F 30.06 in WNW 5.0 mph 5.0 mph 93% 0.00 in WeatherDisplay:10.37 W/m2 CLR
07:15 62.8 °F 60.7 °F 30.06 in WNW 5.0 mph 5.0 mph 93% 0.00 in WeatherDisplay:10.37 W/m2 CLR
07:20 62.6 °F 60.2 °F 30.06 in WNW 5.0 mph 5.0 mph 92% 0.00 in WeatherDisplay:10.37 W/m2 CLR
07:30 62.5 °F 60.4 °F 30.07 in WNW 5.0 mph 5.0 mph 93% 0.00 in WeatherDisplay:10.37 W/m2 CLR
07:35 62.4 °F 60.3 °F 30.07 in WNW 5.0 mph 5.0 mph 93% 0.00 in WeatherDisplay:10.37 W/m2 CLR
07:40 62.4 °F 60.3 °F 30.07 in WNW 5.0 mph 5.0 mph 93% 0.00 in WeatherDisplay:10.37 W/m2 CLR
07:45 62.4 °F 60.3 °F 30.07 in WNW 5.0 mph 5.0 mph 93% 0.00 in WeatherDisplay:10.37 W/m2 CLR
07:50 62.4 °F 60.3 °F 30.07 in WNW 5.0 mph 5.0 mph 93% 0.00 in WeatherDisplay:10.37 W/m2 CLR
07:55 62.6 °F 60.5 °F 30.07 in WNW 5.0 mph 5.0 mph 93% 0.00 in WeatherDisplay:10.37 W/m2 CLR
08:00 62.7 °F 60.7 °F 30.07 in WNW 5.0 mph 5.0 mph 93% 0.00 in WeatherDisplay:10.37 W/m2 CLR
08:05 62.8 °F 60.7 °F 30.07 in WNW 5.0 mph 5.0 mph 93% 0.00 in WeatherDisplay:10.37 W/m2 CLR
08:10 62.9 °F 60.8 °F 30.07 in WNW 5.0 mph 5.0 mph 93% 0.00 in WeatherDisplay:10.37 W/m2 CLR
08:15 63.1 °F 61.0 °F 30.07 in NW 2.0 mph 5.0 mph 93% 0.00 in WeatherDisplay:10.37 W/m2 CLR
08:20 63.3 °F 61.2 °F 30.08 in NNW 2.0 mph 2.0 mph 93% 0.00 in WeatherDisplay:10.37 W/m2 CLR
08:25 63.4 °F 61.3 °F 30.08 in NNW 2.0 mph 2.0 mph 93% 0.00 in WeatherDisplay:10.37 W/m2 CLR
08:30 63.6 °F 61.5 °F 30.07 in NNW 2.0 mph 2.0 mph 93% 0.00 in WeatherDisplay:10.37 W/m2 CLR
08:35 63.8 °F 61.7 °F 30.08 in NNW 2.0 mph 2.0 mph 93% 0.00 in WeatherDisplay:10.37 W/m2 CLR
08:40 64.1 °F 62.0 °F 30.08 in NNW 2.0 mph 2.0 mph 93% 0.00 in WeatherDisplay:10.37 W/m2 CLR
08:45 64.4 °F 62.3 °F 30.08 in NNW 2.0 mph 2.0 mph 93% 0.00 in WeatherDisplay:10.37 W/m2 CLR
08:50 64.6 °F 62.6 °F 30.08 in NNW 2.0 mph 2.0 mph 93% 0.00 in WeatherDisplay:10.37 W/m2 CLR
08:55 64.9 °F 62.5 °F 30.07 in NNW 2.0 mph 2.0 mph 92% 0.00 in WeatherDisplay:10.37 W/m2 CLR
09:00 65.3 °F 62.6 °F 30.08 in NNW 2.0 mph 2.0 mph 91% 0.00 in WeatherDisplay:10.37 W/m2 CLR
09:10 66.2 °F 62.8 °F 30.08 in NNW 2.0 mph 2.0 mph 89% 0.00 in WeatherDisplay:10.37 W/m2 CLR
09:15 66.8 °F 63.1 °F 30.08 in North 3.0 mph 3.0 mph 88% 0.00 in WeatherDisplay:10.37 W/m2 CLR
09:20 67.3 °F 63.3 °F 30.08 in North 3.0 mph 3.0 mph 87% 0.00 in WeatherDisplay:10.37 W/m2 CLR
09:25 67.7 °F 63.4 °F 30.08 in North 3.0 mph 3.0 mph 86% 0.00 in WeatherDisplay:10.37 W/m2 CLR
09:30 68.0 °F 63.3 °F 30.08 in North 3.0 mph 3.0 mph 85% 0.00 in WeatherDisplay:10.37 W/m2 CLR
09:35 68.4 °F 63.4 °F 30.08 in North 3.0 mph 3.0 mph 84% 0.00 in WeatherDisplay:10.37 W/m2 CLR
09:40 68.9 °F 63.6 °F 30.08 in North 3.0 mph 3.0 mph 83% 0.00 in WeatherDisplay:10.37 W/m2 CLR
09:45 69.4 °F 64.0 °F 30.08 in North 3.0 mph 3.0 mph 83% 0.00 in WeatherDisplay:10.37 W/m2 CLR
09:55 70.3 °F 64.1 °F 30.08 in North 3.0 mph 3.0 mph 81% 0.00 in WeatherDisplay:10.37 W/m2 CLR
10:00 70.7 °F 65.0 °F 30.08 in North 3.0 mph 3.0 mph 82% 0.00 in WeatherDisplay:10.37 W/m2 CLR
10:05 71.3 °F 64.4 °F 30.08 in North 3.0 mph 3.0 mph 79% 0.00 in WeatherDisplay:10.37 W/m2 CLR
10:10 71.8 °F 64.9 °F 30.08 in North 3.0 mph 3.0 mph 79% 0.00 in WeatherDisplay:10.37 W/m2 CLR
10:15 72.2 °F 65.0 °F 30.08 in NNE 3.0 mph 3.0 mph 78% 0.00 in WeatherDisplay:10.37 W/m2 CLR
10:20 72.6 °F 65.7 °F 30.08 in NNE 3.0 mph 3.0 mph 79% 0.00 in WeatherDisplay:10.37 W/m2 CLR
10:25 72.9 °F 65.7 °F 30.08 in NNE 3.0 mph 3.0 mph 78% 0.00 in WeatherDisplay:10.37 W/m2 CLR
10:30 73.4 °F 65.7 °F 30.08 in NNE 3.0 mph 3.0 mph 77% 0.00 in WeatherDisplay:10.37 W/m2 CLR
10:40 74.3 °F 65.5 °F 30.08 in NNE 3.0 mph 3.0 mph 74% 0.00 in WeatherDisplay:10.37 W/m2 CLR
10:45 74.9 °F 66.4 °F 30.08 in NNE 3.0 mph 3.0 mph 75% 0.00 in WeatherDisplay:10.37 W/m2 CLR
10:50 76.3 °F 67.0 °F 30.08 in NNE 3.0 mph 3.0 mph 73% 0.00 in WeatherDisplay:10.37 W/m2 CLR
10:55 77.4 °F 67.3 °F 30.08 in NNE 3.0 mph 3.0 mph 71% 0.00 in WeatherDisplay:10.37 W/m2 CLR
11:00 77.7 °F 67.1 °F 30.08 in NNE 3.0 mph 3.0 mph 70% 0.00 in WeatherDisplay:10.37 W/m2 CLR
11:05 78.3 °F 67.3 °F 30.08 in NNE 3.0 mph 3.0 mph 69% 0.00 in WeatherDisplay:10.37 W/m2 CLR
11:10 79.0 °F 67.1 °F 30.08 in NNE 3.0 mph 3.0 mph 67% 0.00 in WeatherDisplay:10.37 W/m2 CLR
11:15 79.7 °F 67.8 °F 30.08 in NNE 1.0 mph 3.0 mph 67% 0.00 in WeatherDisplay:10.37 W/m2 CLR
11:20 79.7 °F 67.3 °F 30.08 in NNE 1.0 mph 1.0 mph 66% 0.00 in WeatherDisplay:10.37 W/m2 CLR
11:25 80.2 °F 67.8 °F 30.08 in NNE 1.0 mph 1.0 mph 66% 0.00 in WeatherDisplay:10.37 W/m2 CLR
11:30 80.8 °F 67.0 °F 30.08 in NNE 1.0 mph 1.0 mph 63% 0.00 in WeatherDisplay:10.37 W/m2 CLR
11:35 81.0 °F 67.2 °F 30.08 in NNE 1.0 mph 1.0 mph 63% 0.00 in WeatherDisplay:10.37 W/m2 CLR
11:40 81.7 °F 68.3 °F 30.08 in NNE 1.0 mph 1.0 mph 64% 0.00 in WeatherDisplay:10.37 W/m2 CLR
11:45 82.3 °F 67.5 °F 30.08 in NNE 1.0 mph 1.0 mph 61% 0.00 in WeatherDisplay:10.37 W/m2 CLR
11:50 82.1 °F 67.8 °F 30.08 in NNE 1.0 mph 1.0 mph 62% 0.00 in WeatherDisplay:10.37 W/m2 CLR
11:55 82.2 °F 67.0 °F 30.07 in NNE 1.0 mph 1.0 mph 60% 0.00 in WeatherDisplay:10.37 W/m2 CLR
12:00 82.8 °F 67.0 °F 30.08 in NNE 1.0 mph 1.0 mph 59% 0.00 in WeatherDisplay:10.37 W/m2 CLR
12:05 83.0 °F 66.2 °F 30.07 in NNE 1.0 mph 1.0 mph 57% 0.00 in WeatherDisplay:10.37 W/m2 CLR
12:10 82.8 °F 68.0 °F 30.07 in NNE 1.0 mph 1.0 mph 61% 0.00 in WeatherDisplay:10.37 W/m2 CLR
12:15 83.0 °F 66.2 °F 30.07 in NNE 1.0 mph 1.0 mph 57% 0.00 in WeatherDisplay:10.37 W/m2 FEW
12:20 83.3 °F 66.4 °F 30.07 in NNE 1.0 mph 1.0 mph 57% 0.00 in WeatherDisplay:10.37 W/m2 FEW
12:25 83.6 °F 65.7 °F 30.07 in NNE 1.0 mph 1.0 mph 55% 0.00 in WeatherDisplay:10.37 W/m2 FEW
12:30 83.9 °F 67.0 °F 30.07 in NNE 1.0 mph 1.0 mph 57% 0.00 in WeatherDisplay:10.37 W/m2 FEW
12:35 84.0 °F 66.6 °F 30.07 in NNE 1.0 mph 1.0 mph 56% 0.00 in WeatherDisplay:10.37 W/m2 FEW
12:45 84.8 °F 66.8 °F 30.07 in NNE 1.0 mph 1.0 mph 55% 0.00 in WeatherDisplay:10.37 W/m2 FEW
12:50 85.2 °F 67.7 °F 30.06 in NNE 1.0 mph 1.0 mph 56% 0.00 in WeatherDisplay:10.37 W/m2 FEW
12:55 85.4 °F 66.3 °F 30.06 in NNE 1.0 mph 1.0 mph 53% 0.00 in WeatherDisplay:10.37 W/m2 FEW
13:00 85.7 °F 67.1 °F 30.06 in NNE 1.0 mph 1.0 mph 54% 0.00 in WeatherDisplay:10.37 W/m2 FEW
13:10 85.3 °F 65.1 °F 30.06 in NNE 1.0 mph 1.0 mph 51% 0.00 in WeatherDisplay:10.37 W/m2 FEW
13:15 85.4 °F 65.7 °F 30.06 in NNE 1.0 mph 1.0 mph 52% 0.00 in WeatherDisplay:10.37 W/m2 FEW
13:20 85.6 °F 66.5 °F 30.05 in NNE 1.0 mph 1.0 mph 53% 0.00 in WeatherDisplay:10.37 W/m2 FEW
13:25 86.0 °F 67.4 °F 30.05 in NNE 1.0 mph 1.0 mph 54% 0.00 in WeatherDisplay:10.37 W/m2 FEW
13:30 85.8 °F 66.7 °F 30.05 in NNE 1.0 mph 1.0 mph 53% 0.00 in WeatherDisplay:10.37 W/m2 FEW
13:35 85.5 °F 65.9 °F 30.05 in NNE 1.0 mph 1.0 mph 52% 0.00 in WeatherDisplay:10.37 W/m2 FEW
13:40 85.4 °F 67.4 °F 30.04 in NNE 1.0 mph 1.0 mph 55% 0.00 in WeatherDisplay:10.37 W/m2 FEW
13:45 85.7 °F 65.5 °F 30.04 in NNE 1.0 mph 1.0 mph 51% 0.00 in WeatherDisplay:10.37 W/m2 FEW
13:50 86.1 °F 65.3 °F 30.04 in NNE 1.0 mph 1.0 mph 50% 0.00 in WeatherDisplay:10.37 W/m2 FEW
13:55 86.2 °F 64.2 °F 30.04 in NNE 1.0 mph 1.0 mph 48% 0.00 in WeatherDisplay:10.37 W/m2 FEW
14:00 86.6 °F 62.7 °F 30.04 in NNE 1.0 mph 1.0 mph 45% 0.00 in WeatherDisplay:10.37 W/m2 FEW
14:05 86.9 °F 62.4 °F 30.03 in NNE 1.0 mph 1.0 mph 44% 0.00 in WeatherDisplay:10.37 W/m2 FEW
14:10 87.4 °F 63.5 °F 30.04 in NNE 1.0 mph 1.0 mph 45% 0.00 in WeatherDisplay:10.37 W/m2 FEW
14:15 87.2 °F 63.9 °F 30.04 in NNE 1.0 mph 1.0 mph 46% 0.00 in WeatherDisplay:10.37 W/m2 FEW
14:20 87.2 °F 63.3 °F 30.04 in NNE 1.0 mph 1.0 mph 45% 0.00 in WeatherDisplay:10.37 W/m2 FEW
14:25 87.2 °F 62.6 °F 30.03 in NNE 1.0 mph 1.0 mph 44% 0.00 in WeatherDisplay:10.37 W/m2 FEW
14:30 86.9 °F 63.7 °F 30.03 in NNE 1.0 mph 1.0 mph 46% 0.00 in WeatherDisplay:10.37 W/m2 FEW
14:35 87.0 °F 62.4 °F 30.03 in NNE 1.0 mph 1.0 mph 44% 0.00 in WeatherDisplay:10.37 W/m2 FEW
14:40 86.7 °F 61.5 °F 30.03 in NNE 1.0 mph 1.0 mph 43% 0.00 in WeatherDisplay:10.37 W/m2 FEW
14:45 86.9 °F 61.1 °F 30.03 in NNE 1.0 mph 1.0 mph 42% 0.00 in WeatherDisplay:10.37 W/m2 FEW
14:50 87.1 °F 61.9 °F 30.02 in NNE 1.0 mph 1.0 mph 43% 0.00 in WeatherDisplay:10.37 W/m2 FEW
15:05 85.9 °F 60.2 °F 30.02 in NNE 1.0 mph 1.0 mph 42% 0.00 in WeatherDisplay:10.37 W/m2 FEW
15:10 85.7 °F 59.3 °F 30.02 in NNE 1.0 mph 1.0 mph 41% 0.00 in WeatherDisplay:10.37 W/m2 FEW
15:15 85.6 °F 61.2 °F 30.02 in NNE 1.0 mph 1.0 mph 44% 0.00 in WeatherDisplay:10.37 W/m2 FEW
15:20 85.2 °F 60.2 °F 30.02 in NNE 1.0 mph 1.0 mph 43% 0.00 in WeatherDisplay:10.37 W/m2 FEW
15:25 84.8 °F 61.1 °F 30.02 in NNE 1.0 mph 1.0 mph 45% 0.00 in WeatherDisplay:10.37 W/m2 FEW
15:30 84.5 °F 62.6 °F 30.01 in NNE 1.0 mph 1.0 mph 48% 0.00 in WeatherDisplay:10.37 W/m2 FEW
15:40 84.1 °F 61.7 °F 30.01 in NNE 1.0 mph 1.0 mph 47% 0.00 in WeatherDisplay:10.37 W/m2 FEW
15:45 84.0 °F 62.2 °F 30.01 in NNW 5.0 mph 5.0 mph 48% 0.00 in WeatherDisplay:10.37 W/m2 FEW
15:50 83.7 °F 63.1 °F 30.01 in NNW 5.0 mph 5.0 mph 50% 0.00 in WeatherDisplay:10.37 W/m2 FEW
16:00 83.7 °F 61.3 °F 30.01 in NNW 5.0 mph 5.0 mph 47% 0.00 in WeatherDisplay:10.37 W/m2 FEW
16:05 83.6 °F 62.4 °F 30.00 in NNW 5.0 mph 5.0 mph 49% 0.00 in WeatherDisplay:10.37 W/m2 FEW
16:10 83.5 °F 61.7 °F 30.01 in NNW 5.0 mph 5.0 mph 48% 0.00 in WeatherDisplay:10.37 W/m2 FEW
16:15 83.7 °F 60.8 °F 30.00 in NW 8.0 mph 8.0 mph 46% 0.00 in WeatherDisplay:10.37 W/m2 SCT
16:25 84.0 °F 62.2 °F 30.00 in NW 8.0 mph 8.0 mph 48% 0.00 in WeatherDisplay:10.37 W/m2 SCT
16:50 83.2 °F 62.6 °F 30.00 in NW 8.0 mph 8.0 mph 50% 0.00 in WeatherDisplay:10.37 W/m2 SCT
16:55 82.8 °F 61.7 °F 29.99 in NW 8.0 mph 8.0 mph 49% 0.00 in WeatherDisplay:10.37 W/m2 SCT
17:00 82.6 °F 62.1 °F 29.99 in NW 8.0 mph 8.0 mph 50% 0.00 in WeatherDisplay:10.37 W/m2 SCT
17:05 82.4 °F 61.3 °F 29.99 in NW 8.0 mph 8.0 mph 49% 0.00 in WeatherDisplay:10.37 W/m2 SCT
17:10 82.4 °F 62.4 °F 29.99 in NW 8.0 mph 8.0 mph 51% 0.00 in WeatherDisplay:10.37 W/m2 SCT
17:15 82.1 °F 61.0 °F 29.99 in NW 7.0 mph 8.0 mph 49% 0.00 in WeatherDisplay:10.37 W/m2 SCT
17:20 81.9 °F 61.5 °F 29.99 in WNW 7.0 mph 7.0 mph 50% 0.00 in WeatherDisplay:10.37 W/m2 SCT
17:25 81.6 °F 60.6 °F 29.99 in WNW 7.0 mph 7.0 mph 49% 0.00 in WeatherDisplay:10.37 W/m2 SCT
17:30 81.4 °F 62.0 °F 29.99 in WNW 7.0 mph 7.0 mph 52% 0.00 in WeatherDisplay:10.37 W/m2 SCT
17:35 81.0 °F 61.7 °F 29.99 in WNW 7.0 mph 7.0 mph 52% 0.00 in WeatherDisplay:10.37 W/m2 SCT
17:40 80.7 °F 63.0 °F 29.99 in WNW 7.0 mph 7.0 mph 55% 0.00 in WeatherDisplay:10.37 W/m2 SCT
17:45 80.3 °F 62.2 °F 29.99 in WNW 7.0 mph 7.0 mph 54% 0.00 in WeatherDisplay:10.37 W/m2 SCT
17:50 80.3 °F 62.7 °F 29.99 in WNW 7.0 mph 7.0 mph 55% 0.00 in WeatherDisplay:10.37 W/m2 SCT
17:55 80.2 °F 64.1 °F 29.99 in WNW 7.0 mph 7.0 mph 58% 0.00 in WeatherDisplay:10.37 W/m2 SCT
18:00 80.1 °F 63.0 °F 29.99 in WNW 7.0 mph 7.0 mph 56% 0.00 in WeatherDisplay:10.37 W/m2 SCT
18:05 80.0 °F 63.9 °F 29.99 in WNW 7.0 mph 7.0 mph 58% 0.00 in WeatherDisplay:10.37 W/m2 SCT
18:10 79.7 °F 64.1 °F 29.99 in WNW 7.0 mph 7.0 mph 59% 0.00 in WeatherDisplay:10.37 W/m2 SCT
18:15 79.5 °F 63.9 °F 29.98 in WNW 7.0 mph 7.0 mph 59% 0.00 in WeatherDisplay:10.37 W/m2 SCT
18:20 79.0 °F 64.4 °F 29.98 in WNW 7.0 mph 7.0 mph 61% 0.00 in WeatherDisplay:10.37 W/m2 SCT
18:25 78.9 °F 64.3 °F 29.98 in WNW 7.0 mph 7.0 mph 61% 0.00 in WeatherDisplay:10.37 W/m2 SCT
18:30 78.8 °F 64.2 °F 29.98 in WNW 7.0 mph 7.0 mph 61% 0.00 in WeatherDisplay:10.37 W/m2 SCT
18:35 78.6 °F 64.5 °F 29.98 in WNW 7.0 mph 7.0 mph 62% 0.00 in WeatherDisplay:10.37 W/m2 SCT
18:40 78.2 °F 64.1 °F 29.98 in WNW 7.0 mph 7.0 mph 62% 0.00 in WeatherDisplay:10.37 W/m2 SCT
18:45 78.0 °F 63.9 °F 29.98 in WNW 7.0 mph 7.0 mph 62% 0.00 in WeatherDisplay:10.37 W/m2 SCT
18:50 77.8 °F 64.7 °F 29.99 in WNW 7.0 mph 7.0 mph 64% 0.00 in WeatherDisplay:10.37 W/m2 SCT
18:55 77.5 °F 64.4 °F 29.99 in WNW 7.0 mph 7.0 mph 64% 0.00 in WeatherDisplay:10.37 W/m2 SCT
19:00 77.3 °F 64.6 °F 29.99 in WNW 7.0 mph 7.0 mph 65% 0.00 in WeatherDisplay:10.37 W/m2 SCT
19:05 77.0 °F 64.3 °F 29.99 in WNW 7.0 mph 7.0 mph 65% 0.00 in WeatherDisplay:10.37 W/m2 SCT
19:10 76.7 °F 64.5 °F 29.99 in WNW 7.0 mph 7.0 mph 66% 0.00 in WeatherDisplay:10.37 W/m2 SCT
19:15 76.4 °F 64.6 °F 29.99 in NW 5.0 mph 7.0 mph 67% 0.00 in WeatherDisplay:10.37 W/m2 SCT
19:20 76.1 °F 64.8 °F 29.99 in NW 5.0 mph 5.0 mph 68% 0.00 in WeatherDisplay:10.37 W/m2 SCT
19:25 75.9 °F 64.6 °F 29.99 in NW 5.0 mph 5.0 mph 68% 0.00 in WeatherDisplay:10.37 W/m2 SCT
19:30 75.8 °F 64.5 °F 29.99 in NW 5.0 mph 5.0 mph 68% 0.00 in WeatherDisplay:10.37 W/m2 SCT
19:35 75.7 °F 64.4 °F 29.99 in NW 5.0 mph 5.0 mph 68% 0.00 in WeatherDisplay:10.37 W/m2 SCT
19:40 75.6 °F 64.3 °F 29.99 in NW 5.0 mph 5.0 mph 68% 0.00 in WeatherDisplay:10.37 W/m2 SCT
19:45 75.4 °F 64.5 °F 29.99 in NW 5.0 mph 5.0 mph 69% 0.00 in WeatherDisplay:10.37 W/m2 SCT
19:50 75.2 °F 64.3 °F 29.99 in NW 5.0 mph 5.0 mph 69% 0.00 in WeatherDisplay:10.37 W/m2 SCT
19:55 75.1 °F 63.8 °F 29.99 in NW 5.0 mph 5.0 mph 68% 0.00 in WeatherDisplay:10.37 W/m2 SCT
20:00 75.1 °F 64.2 °F 30.00 in NW 5.0 mph 5.0 mph 69% 0.00 in WeatherDisplay:10.37 W/m2 SCT
20:10 74.8 °F 64.0 °F 30.00 in NW 5.0 mph 5.0 mph 69% 0.00 in WeatherDisplay:10.37 W/m2 SCT
20:15 74.7 °F 64.3 °F 30.00 in NW 3.0 mph 5.0 mph 70% 0.00 in WeatherDisplay:10.37 W/m2 FEW
20:20 74.6 °F 64.2 °F 30.00 in NNW 3.0 mph 3.0 mph 70% 0.00 in WeatherDisplay:10.37 W/m2 FEW
20:25 74.5 °F 64.1 °F 30.00 in NNW 3.0 mph 3.0 mph 70% 0.00 in WeatherDisplay:10.37 W/m2 FEW
20:30 74.4 °F 64.4 °F 30.00 in NNW 3.0 mph 3.0 mph 71% 0.00 in WeatherDisplay:10.37 W/m2 FEW
20:40 74.0 °F 64.4 °F 30.01 in NNW 3.0 mph 3.0 mph 72% 0.00 in WeatherDisplay:10.37 W/m2 FEW
20:45 73.9 °F 64.3 °F 30.01 in NNW 3.0 mph 3.0 mph 72% 0.00 in WeatherDisplay:10.37 W/m2 FEW
20:50 73.8 °F 64.6 °F 30.01 in NNW 3.0 mph 3.0 mph 73% 0.00 in WeatherDisplay:10.37 W/m2 FEW
20:55 73.6 °F 64.4 °F 30.01 in NNW 3.0 mph 3.0 mph 73% 0.00 in WeatherDisplay:10.37 W/m2 FEW
21:00 73.5 °F 64.7 °F 30.01 in NNW 3.0 mph 3.0 mph 74% 0.00 in WeatherDisplay:10.37 W/m2 FEW
21:05 73.4 °F 64.6 °F 30.01 in NNW 3.0 mph 3.0 mph 74% 0.00 in WeatherDisplay:10.37 W/m2 FEW
21:10 73.3 °F 64.9 °F 30.01 in NNW 3.0 mph 3.0 mph 75% 0.00 in WeatherDisplay:10.37 W/m2 FEW
21:15 73.2 °F 64.4 °F 30.01 in NNW 3.0 mph 3.0 mph 74% 0.00 in WeatherDisplay:10.37 W/m2 FEW
21:20 73.2 °F 64.4 °F 30.01 in NNW 3.0 mph 3.0 mph 74% 0.00 in WeatherDisplay:10.37 W/m2 FEW
21:25 73.1 °F 64.7 °F 30.01 in NNW 3.0 mph 3.0 mph 75% 0.00 in WeatherDisplay:10.37 W/m2 FEW
21:30 73.0 °F 65.0 °F 30.01 in NNW 3.0 mph 3.0 mph 76% 0.00 in WeatherDisplay:10.37 W/m2 FEW
21:35 72.9 °F 64.9 °F 30.01 in NNW 3.0 mph 3.0 mph 76% 0.00 in WeatherDisplay:10.37 W/m2 FEW
21:40 72.7 °F 64.7 °F 30.01 in NNW 3.0 mph 3.0 mph 76% 0.00 in WeatherDisplay:10.37 W/m2 FEW
21:45 72.7 °F 64.7 °F 30.01 in NNW 3.0 mph 3.0 mph 76% 0.00 in WeatherDisplay:10.37 W/m2 FEW
21:50 72.7 °F 64.7 °F 30.01 in NNW 3.0 mph 3.0 mph 76% 0.00 in WeatherDisplay:10.37 W/m2 FEW
21:55 72.7 °F 64.7 °F 30.01 in NNW 3.0 mph 3.0 mph 76% 0.00 in WeatherDisplay:10.37 W/m2 FEW
22:00 72.6 °F 64.6 °F 30.01 in NNW 3.0 mph 3.0 mph 76% 0.00 in WeatherDisplay:10.37 W/m2 FEW
22:05 72.6 °F 64.6 °F 30.01 in NNW 3.0 mph 3.0 mph 76% 0.00 in WeatherDisplay:10.37 W/m2 FEW
22:10 72.5 °F 64.5 °F 30.01 in NNW 3.0 mph 3.0 mph 76% 0.00 in WeatherDisplay:10.37 W/m2 FEW
22:15 72.5 °F 64.5 °F 30.01 in NNW 3.0 mph 3.0 mph 76% 0.00 in WeatherDisplay:10.37 W/m2 CLR
22:20 72.5 °F 64.9 °F 30.01 in NNW 3.0 mph 3.0 mph 77% 0.00 in WeatherDisplay:10.37 W/m2 CLR
22:25 72.3 °F 64.7 °F 30.01 in NNW 3.0 mph 3.0 mph 77% 0.00 in WeatherDisplay:10.37 W/m2 CLR
22:30 72.2 °F 64.5 °F 30.01 in NNW 3.0 mph 3.0 mph 77% 0.00 in WeatherDisplay:10.37 W/m2 CLR
22:35 71.9 °F 64.7 °F 30.01 in NNW 3.0 mph 3.0 mph 78% 0.00 in WeatherDisplay:10.37 W/m2 CLR
22:40 71.8 °F 64.5 °F 30.02 in NNW 3.0 mph 3.0 mph 78% 0.00 in WeatherDisplay:10.37 W/m2 CLR
22:45 71.6 °F 64.7 °F 30.02 in NNW 3.0 mph 3.0 mph 79% 0.00 in WeatherDisplay:10.37 W/m2 CLR
22:50 71.4 °F 64.5 °F 30.02 in NNW 3.0 mph 3.0 mph 79% 0.00 in WeatherDisplay:10.37 W/m2 CLR
22:55 71.3 °F 64.8 °F 30.02 in NNW 3.0 mph 3.0 mph 80% 0.00 in WeatherDisplay:10.37 W/m2 CLR
23:00 71.1 °F 64.7 °F 30.02 in NNW 3.0 mph 3.0 mph 80% 0.00 in WeatherDisplay:10.37 W/m2 CLR
23:10 70.6 °F 64.5 °F 30.01 in NNW 3.0 mph 3.0 mph 81% 0.00 in WeatherDisplay:10.37 W/m2 CLR
23:15 70.3 °F 64.5 °F 30.01 in NNW 3.0 mph 3.0 mph 82% 0.00 in WeatherDisplay:10.37 W/m2 FEW
23:20 70.1 °F 64.3 °F 30.01 in NNW 3.0 mph 3.0 mph 82% 0.00 in WeatherDisplay:10.37 W/m2 FEW
23:25 69.9 °F 64.5 °F 30.02 in NNW 3.0 mph 3.0 mph 83% 0.00 in WeatherDisplay:10.37 W/m2 FEW
23:30 69.8 °F 64.4 °F 30.01 in NNW 3.0 mph 3.0 mph 83% 0.00 in WeatherDisplay:10.37 W/m2 FEW
23:35 69.6 °F 64.5 °F 30.01 in NNW 3.0 mph 3.0 mph 84% 0.00 in WeatherDisplay:10.37 W/m2 FEW
23:40 69.5 °F 64.4 °F 30.01 in NNW 3.0 mph 3.0 mph 84% 0.00 in WeatherDisplay:10.37 W/m2 FEW
23:45 69.3 °F 64.2 °F 30.01 in NNW 3.0 mph 3.0 mph 84% 0.00 in WeatherDisplay:10.37 W/m2 FEW
23:50 69.1 °F 64.4 °F 30.01 in NNW 3.0 mph 3.0 mph 85% 0.00 in WeatherDisplay:10.37 W/m2 FEW
23:55 69.0 °F 64.3 °F 30.01 in NNW 3.0 mph 3.0 mph 85% 0.00 in WeatherDisplay:10.37 W/m2 FEW
Piedmont Bend
Compliments of Weather Underground - 4 mb